Time;durP1;ratioP1;P1;durP2;ratioP2;P2;SDS_P1;SDS_P2;PMS_P1;PMS_P2;Temp;Humidity;BMP_temperature;BMP_pressure;BME280_temperature;BME280_humidity;BME280_pressure;Samples;Min_cycle;Max_cycle;Signal;HPM_P1;HPM_P2
2022/12/27 00:02:03;;;;;;;3.47;3.22;;;17.60;69.90;;;;;;5074456;28;20050;-13
2022/12/27 00:04:29;;;;;;;3.35;3.15;;;17.60;69.80;;;;;;5076345;28;20033;-14
2022/12/27 00:06:54;;;;;;;3.80;3.55;;;17.60;69.90;;;;;;5072959;28;20506;-13
2022/12/27 00:09:20;;;;;;;3.65;3.35;;;17.60;69.70;;;;;;5076375;28;20044;-13
2022/12/27 00:11:46;;;;;;;2.53;2.42;;;17.60;69.70;;;;;;5068280;28;20036;-13
2022/12/27 00:14:11;;;;;;;3.20;3.00;;;17.60;70.00;;;;;;5067136;28;20089;-13
2022/12/27 00:16:37;;;;;;;3.17;2.97;;;17.60;69.90;;;;;;5070727;28;20036;-14
2022/12/27 00:19:03;;;;;;;2.85;2.65;;;17.60;69.60;;;;;;5070514;28;20562;-13
2022/12/27 00:21:28;;;;;;;3.05;2.85;;;17.60;69.60;;;;;;5074795;28;20036;-12
2022/12/27 00:23:55;;;;;;;2.80;2.55;;;17.60;69.60;;;;;;5071825;28;20147;-13
2022/12/27 00:26:22;;;;;;;3.47;3.28;;;17.60;69.70;;;;;;5069951;28;20041;-17
2022/12/27 00:28:47;;;;;;;2.85;2.65;;;17.50;69.80;;;;;;5067081;28;20044;-26
2022/12/27 00:31:13;;;;;;;3.20;3.00;;;17.50;69.80;;;;;;5070437;28;20048;-14
2022/12/27 00:33:39;;;;;;;2.95;2.75;;;17.50;69.80;;;;;;5071317;28;20488;-13
2022/12/27 00:36:06;;;;;;;2.80;2.58;;;17.40;70.10;;;;;;5072294;28;20069;-12
2022/12/27 00:38:32;;;;;;;2.67;2.47;;;17.50;69.90;;;;;;5073624;28;20553;-13
2022/12/27 00:40:58;;;;;;;2.50;2.30;;;17.50;69.80;;;;;;5069568;28;20044;-13
2022/12/27 00:43:23;;;;;;;2.92;2.72;;;17.50;69.60;;;;;;5072199;28;20561;-22
2022/12/27 00:45:49;;;;;;;2.90;2.70;;;17.50;69.70;;;;;;5065261;28;20036;-24
2022/12/27 00:48:14;;;;;;;2.53;2.40;;;17.50;69.80;;;;;;5074566;28;20541;-13
2022/12/27 00:50:40;;;;;;;2.50;2.38;;;17.50;69.70;;;;;;5073747;28;20051;-20
2022/12/27 00:53:07;;;;;;;3.30;2.75;;;17.50;69.50;;;;;;5070627;28;20052;-18
2022/12/27 00:55:33;;;;;;;3.28;3.00;;;17.40;70.50;;;;;;5066665;28;20071;-13
2022/12/27 00:57:58;;;;;;;3.17;2.90;;;17.40;69.70;;;;;;5070401;28;20032;-13
2022/12/27 01:00:24;;;;;;;2.63;2.42;;;17.50;69.60;;;;;;5069323;28;20055;-15
2022/12/27 01:02:49;;;;;;;2.65;2.55;;;17.50;69.70;;;;;;5067311;28;20509;-15
2022/12/27 01:05:15;;;;;;;2.42;2.33;;;17.40;69.60;;;;;;5075250;28;20040;-13
2022/12/27 01:07:41;;;;;;;2.38;2.28;;;17.40;69.80;;;;;;5069137;28;20067;-14
2022/12/27 01:10:07;;;;;;;2.35;2.25;;;17.40;69.80;;;;;;5070748;28;20037;-15
2022/12/27 01:12:33;;;;;;;2.97;2.78;;;17.30;69.80;;;;;;5067553;28;20094;-13
2022/12/27 01:14:59;;;;;;;2.70;2.60;;;17.30;69.90;;;;;;5067995;28;20108;-13
2022/12/27 01:17:24;;;;;;;2.47;2.38;;;17.30;69.80;;;;;;5075625;28;20492;-18
2022/12/27 01:19:50;;;;;;;2.50;2.40;;;17.30;69.90;;;;;;5071012;28;20041;-14
2022/12/27 01:22:15;;;;;;;2.97;2.72;;;17.40;69.60;;;;;;5069981;28;20063;-27
2022/12/27 01:24:41;;;;;;;2.72;2.50;;;17.30;69.70;;;;;;5069174;28;20427;-13
2022/12/27 01:27:07;;;;;;;2.30;2.20;;;17.30;69.70;;;;;;5077615;28;20040;-14
2022/12/27 01:29:32;;;;;;;2.67;2.47;;;17.30;69.70;;;;;;5072045;28;20202;-14
2022/12/27 01:31:58;;;;;;;2.33;2.22;;;17.30;69.80;;;;;;5066781;28;20047;-13
2022/12/27 01:34:23;;;;;;;2.35;2.25;;;17.30;69.80;;;;;;5068544;28;20093;-13
2022/12/27 01:36:49;;;;;;;2.55;2.35;;;17.30;69.70;;;;;;5068235;28;20043;-13
2022/12/27 01:39:15;;;;;;;2.25;2.15;;;17.30;69.80;;;;;;5071594;28;20040;-13
2022/12/27 01:44:38;;;;;;;2.38;2.20;;;17.30;69.70;;;;;;5064401;28;20047;-14
2022/12/27 01:47:33;;;;;;;2.25;2.15;;;17.30;69.70;;;;;;5073014;28;20113;-13
2022/12/27 01:50:13;;;;;;;2.60;2.40;;;17.30;69.80;;;;;;5064107;28;20109;-14
2022/12/27 01:52:45;;;;;;;2.03;1.92;;;17.20;69.80;;;;;;5069956;28;20044;-13
2022/12/27 01:55:19;;;;;;;2.33;2.20;;;17.20;69.90;;;;;;5055568;28;20061;-13
2022/12/27 01:57:45;;;;;;;2.55;2.35;;;17.20;69.80;;;;;;5061471;28;20139;-13
2022/12/27 02:00:10;;;;;;;2.38;2.17;;;17.30;70.40;;;;;;5067649;28;20052;-13
2022/12/27 02:02:36;;;;;;;2.30;2.20;;;17.20;69.90;;;;;;5070840;28;20061;-13
2022/12/27 02:05:02;;;;;;;2.60;2.40;;;17.20;69.80;;;;;;5047067;28;20056;-19
2022/12/27 02:07:33;;;;;;;1.85;1.75;;;17.20;69.90;;;;;;5049091;28;20080;-19
2022/12/27 02:09:59;;;;;;;2.20;2.10;;;17.20;69.90;;;;;;5053149;28;20233;-23
2022/12/27 02:12:25;;;;;;;2.03;1.85;;;17.10;69.90;;;;;;5048953;28;20524;-13
2022/12/27 02:14:50;;;;;;;2.03;1.92;;;17.10;70.70;;;;;;5070408;28;20052;-15
2022/12/27 02:17:20;;;;;;;2.20;2.10;;;17.20;69.90;;;;;;5073300;28;20055;-13
2022/12/27 02:20:17;;;;;;;2.20;2.10;;;17.10;69.90;;;;;;5053786;28;20062;-13
2022/12/27 02:25:59;;;;;;;1.83;1.73;;;17.10;70.00;;;;;;5070355;28;20060;-20
2022/12/27 02:28:53;;;;;;;2.00;1.90;;;17.00;70.10;;;;;;5070997;28;20060;-13
2022/12/27 02:31:22;;;;;;;1.85;1.75;;;17.10;69.80;;;;;;5072709;28;20083;-13
2022/12/27 02:33:48;;;;;;;2.13;2.03;;;17.10;70.00;;;;;;5079275;28;20036;-13
2022/12/27 02:36:23;;;;;;;2.25;2.05;;;17.10;69.90;;;;;;5044918;28;20044;-13
2022/12/27 02:38:50;;;;;;;1.70;1.60;;;17.10;69.80;;;;;;5070947;28;20031;-13
2022/12/27 02:55:28;;;;;;;1.88;1.77;;;17.10;69.60;;;;;;5066289;28;22640;-13
2022/12/27 02:58:07;;;;;;;2.20;2.10;;;17.10;69.60;;;;;;5041490;28;20047;-13
2022/12/27 03:03:50;;;;;;;1.90;1.80;;;17.10;69.50;;;;;;4984011;28;20056;-16
2022/12/27 03:06:39;;;;;;;1.77;1.67;;;17.10;69.60;;;;;;4985954;28;20041;-13
2022/12/27 03:17:42;;;;;;;1.90;1.80;;;17.10;69.50;;;;;;4974757;28;20507;-18
2022/12/27 03:25:41;;;;;;;1.70;1.60;;;17.10;69.30;;;;;;4976222;28;20072;-13
2022/12/27 03:34:03;;;;;;;1.83;1.73;;;17.10;69.20;;;;;;4973005;28;20999;-17
2022/12/27 03:39:29;;;;;;;1.50;1.40;;;17.10;69.10;;;;;;4976018;28;20093;-13
2022/12/27 03:44:45;;;;;;;2.13;2.03;;;17.10;69.20;;;;;;5008823;28;20266;-13
2022/12/27 03:47:31;;;;;;;1.75;1.65;;;17.10;69.20;;;;;;5023317;28;20578;-13
2022/12/27 03:50:34;;;;;;;1.73;1.63;;;17.10;69.00;;;;;;5008168;28;20044;-14
2022/12/27 03:53:13;;;;;;;1.60;1.50;;;17.20;69.00;;;;;;5057521;28;20114;-14
2022/12/27 03:55:39;;;;;;;1.85;1.70;;;17.20;68.70;;;;;;5084793;28;20123;-13
2022/12/27 03:58:04;;;;;;;1.60;1.50;;;17.20;68.80;;;;;;5083927;28;20115;-14
2022/12/27 04:00:30;;;;;;;1.60;1.50;;;17.20;68.70;;;;;;5084771;28;20044;-15
2022/12/27 04:02:55;;;;;;;1.38;1.38;;;17.20;68.70;;;;;;5074176;28;20070;-13
2022/12/27 04:05:21;;;;;;;1.50;1.40;;;17.20;68.80;;;;;;5083763;28;20052;-13
2022/12/27 04:35:09;;;;;;;1.60;1.50;;;17.20;68.50;;;;;;5065795;28;20075;-13
2022/12/27 04:37:34;;;;;;;1.48;1.38;;;17.20;68.60;;;;;;5074631;28;20060;-15
2022/12/27 04:56:27;;;;;;;1.83;1.42;;;17.10;68.60;;;;;;5070812;28;20960;-13
2022/12/27 05:04:21;;;;;;;1.60;1.50;;;17.10;68.50;;;;;;5056905;28;20528;-21
2022/12/27 05:06:47;;;;;;;0.90;0.90;;;17.10;68.60;;;;;;5067801;28;20041;-16
2022/12/27 05:14:41;;;;;;;1.00;1.00;;;17.20;68.40;;;;;;5070626;28;21104;-15
2022/12/27 05:17:06;;;;;;;1.15;1.15;;;17.10;68.40;;;;;;5069873;28;20033;-13
2022/12/27 05:19:32;;;;;;;1.15;1.15;;;17.10;68.40;;;;;;5070437;28;20052;-20
2022/12/27 05:27:26;;;;;;;1.13;1.10;;;17.10;68.40;;;;;;5069951;28;20051;-17
2022/12/27 05:29:51;;;;;;;1.45;1.35;;;17.10;68.30;;;;;;5067570;28;20041;-16
2022/12/27 05:32:17;;;;;;;1.30;1.20;;;17.10;68.40;;;;;;5072005;28;20043;-23
2022/12/27 05:34:43;;;;;;;1.55;1.45;;;17.20;68.30;;;;;;5054450;28;20033;-13
2022/12/27 05:37:08;;;;;;;1.30;1.20;;;17.10;68.40;;;;;;5065408;28;20037;-18
2022/12/27 05:39:34;;;;;;;1.25;1.17;;;17.00;68.90;;;;;;5070170;28;20044;-25
2022/12/27 05:41:59;;;;;;;1.40;1.30;;;16.90;69.20;;;;;;5072951;28;20040;-19
2022/12/27 05:44:25;;;;;;;1.02;1.02;;;17.10;68.80;;;;;;5082667;28;20117;-15
2022/12/27 05:46:53;;;;;;;1.15;1.15;;;17.10;68.60;;;;;;5075109;28;20049;-27
2022/12/27 05:49:18;;;;;;;1.38;1.27;;;17.10;68.60;;;;;;5073607;28;20044;-21
2022/12/27 05:51:44;;;;;;;1.10;1.10;;;17.10;68.40;;;;;;5085738;28;20553;-23
2022/12/27 05:54:09;;;;;;;1.40;1.30;;;17.10;68.40;;;;;;5079158;28;20056;-26
2022/12/27 05:56:36;;;;;;;1.20;1.10;;;17.10;68.40;;;;;;5077256;28;20158;-25
2022/12/27 05:59:02;;;;;;;0.85;0.85;;;17.10;68.40;;;;;;5076220;28;20041;-15
2022/12/27 06:01:27;;;;;;;1.20;1.10;;;17.10;68.50;;;;;;5082233;28;20109;-17
2022/12/27 06:03:53;;;;;;;1.00;0.90;;;17.00;68.60;;;;;;5079873;28;20039;-34
2022/12/27 06:06:19;;;;;;;1.30;1.20;;;17.00;68.70;;;;;;5076870;28;20760;-14
2022/12/27 06:08:44;;;;;;;1.40;1.30;;;17.00;68.70;;;;;;5077549;28;20067;-29
2022/12/27 06:11:14;;;;;;;3.58;0.98;;;17.00;68.60;;;;;;5080917;28;20048;-18
2022/12/27 06:13:41;;;;;;;1.17;1.08;;;17.00;68.70;;;;;;5079556;28;20052;-19
2022/12/27 06:16:07;;;;;;;0.68;0.68;;;17.00;68.60;;;;;;5080559;28;20513;-15
2022/12/27 06:18:34;;;;;;;1.10;1.10;;;17.00;68.60;;;;;;5069254;28;20398;-14
2022/12/27 06:21:08;;;;;;;1.15;1.13;;;17.00;68.60;;;;;;5078069;28;20036;-14
2022/12/27 06:23:34;;;;;;;1.00;1.00;;;17.00;68.60;;;;;;5080391;28;20086;-22
2022/12/27 06:26:04;;;;;;;0.82;0.77;;;17.00;68.50;;;;;;5078430;28;20052;-23
2022/12/27 06:28:30;;;;;;;0.85;0.85;;;17.00;68.70;;;;;;5080638;28;20506;-14
2022/12/27 06:30:58;;;;;;;1.15;1.10;;;17.00;68.70;;;;;;5077446;28;20042;-18
2022/12/27 06:33:24;;;;;;;0.80;0.80;;;17.00;68.60;;;;;;5074654;28;20048;-24
2022/12/27 06:35:49;;;;;;;0.88;0.88;;;17.00;68.70;;;;;;5079683;28;20045;-20
2022/12/27 06:38:15;;;;;;;1.05;1.05;;;16.90;68.70;;;;;;5078302;28;20044;-14
2022/12/27 06:40:40;;;;;;;0.90;0.90;;;17.00;68.60;;;;;;5079322;28;20106;-14
2022/12/27 06:43:06;;;;;;;1.10;1.10;;;17.00;68.60;;;;;;5081203;28;20043;-13
2022/12/27 06:45:31;;;;;;;1.88;1.00;;;17.00;68.60;;;;;;5070609;28;20056;-14
2022/12/27 06:47:57;;;;;;;0.82;0.82;;;16.90;68.80;;;;;;5078490;28;20033;-14
2022/12/27 06:50:23;;;;;;;0.90;0.90;;;16.90;68.80;;;;;;5071402;28;20060;-14
2022/12/27 06:52:48;;;;;;;0.90;0.90;;;16.90;69.10;;;;;;5076824;28;20036;-15
2022/12/27 06:55:14;;;;;;;1.00;1.00;;;17.00;68.70;;;;;;5073227;28;20044;-14
2022/12/27 06:57:39;;;;;;;0.95;0.93;;;17.00;68.60;;;;;;5079316;28;20053;-14
2022/12/27 07:00:06;;;;;;;0.80;0.80;;;17.00;68.60;;;;;;5080794;28;20071;-15
2022/12/27 07:02:31;;;;;;;0.95;0.95;;;17.00;68.60;;;;;;5073713;28;20052;-14
2022/12/27 07:04:57;;;;;;;0.88;0.88;;;16.90;68.60;;;;;;5070857;28;20044;-14
2022/12/27 07:07:22;;;;;;;1.10;1.10;;;16.90;69.40;;;;;;5072649;28;20047;-14
2022/12/27 07:09:48;;;;;;;0.80;0.80;;;16.90;68.60;;;;;;5071783;28;20491;-13
2022/12/27 07:12:14;;;;;;;1.50;0.88;;;16.90;68.50;;;;;;5073783;28;20040;-13
2022/12/27 07:14:39;;;;;;;0.80;0.80;;;16.90;68.40;;;;;;5056083;28;20424;-23
2022/12/27 07:17:05;;;;;;;0.90;0.90;;;16.90;68.60;;;;;;5068612;28;20048;-16
2022/12/27 07:19:30;;;;;;;1.00;1.00;;;16.90;68.60;;;;;;5063337;28;20045;-14
2022/12/27 07:21:56;;;;;;;0.90;0.90;;;16.90;68.50;;;;;;5064123;28;20048;-15
2022/12/27 07:24:22;;;;;;;1.00;0.90;;;16.90;68.60;;;;;;5065004;28;20497;-21
2022/12/27 07:26:48;;;;;;;1.73;1.10;;;16.90;68.70;;;;;;5069738;28;20048;-14
2022/12/27 07:29:13;;;;;;;1.00;0.90;;;16.80;69.10;;;;;;5068840;28;20196;-13
2022/12/27 07:31:39;;;;;;;1.02;1.02;;;16.70;69.30;;;;;;5068841;28;20045;-13
2022/12/27 07:34:04;;;;;;;1.05;1.02;;;16.70;69.30;;;;;;5068675;28;20044;-12
2022/12/27 07:36:36;;;;;;;1.23;1.10;;;16.70;69.20;;;;;;5066201;28;20037;-14
2022/12/27 07:39:01;;;;;;;0.80;0.80;;;16.70;69.60;;;;;;5053380;28;20036;-13
2022/12/27 07:41:27;;;;;;;1.15;1.15;;;16.70;69.60;;;;;;5072700;28;20530;-13
2022/12/27 07:43:53;;;;;;;0.85;0.70;;;16.60;69.60;;;;;;5077932;28;20394;-14
2022/12/27 07:46:20;;;;;;;0.80;0.80;;;16.80;69.10;;;;;;5068865;28;20039;-13
2022/12/27 07:48:46;;;;;;;0.73;0.73;;;16.70;69.00;;;;;;5069843;28;20048;-13
2022/12/27 07:51:12;;;;;;;1.00;1.00;;;16.70;69.30;;;;;;5077605;28;20032;-12
2022/12/27 07:53:37;;;;;;;0.80;0.80;;;16.70;69.10;;;;;;5069003;28;20053;-13
2022/12/27 07:56:11;;;;;;;0.85;0.80;;;16.70;69.00;;;;;;5076747;28;20120;-13
2022/12/27 07:58:38;;;;;;;1.35;0.88;;;16.70;69.00;;;;;;5071295;28;20086;-15
2022/12/27 08:01:04;;;;;;;0.90;0.90;;;16.70;69.00;;;;;;5073687;28;20040;-24
2022/12/27 08:03:30;;;;;;;0.80;0.80;;;16.70;69.10;;;;;;5071192;28;20423;-13
2022/12/27 08:05:55;;;;;;;1.85;0.80;;;16.70;69.10;;;;;;5050720;28;20045;-13
2022/12/27 08:08:22;;;;;;;2.17;1.15;;;16.60;68.80;;;;;;5072131;28;20429;-12
2022/12/27 08:10:48;;;;;;;1.63;1.50;;;16.60;69.10;;;;;;5040461;28;20044;-13
2022/12/27 08:13:13;;;;;;;3.90;2.08;;;16.70;69.00;;;;;;5069261;28;20042;-13
2022/12/27 08:15:39;;;;;;;1.73;1.63;;;16.60;69.00;;;;;;5075230;28;20033;-13
2022/12/27 08:18:05;;;;;;;2.25;2.05;;;16.50;69.20;;;;;;5073569;28;20051;-13
2022/12/27 08:20:31;;;;;;;2.10;2.00;;;16.50;69.40;;;;;;5068635;28;20041;-13
2022/12/27 08:22:56;;;;;;;5.10;3.30;;;16.50;69.00;;;;;;5079127;28;20536;-16
2022/12/27 08:25:22;;;;;;;4.40;3.75;;;16.50;69.10;;;;;;5067679;28;20036;-13
2022/12/27 08:27:47;;;;;;;5.75;4.25;;;16.50;69.30;;;;;;5073173;28;20097;-14
2022/12/27 08:30:13;;;;;;;7.05;4.03;;;16.50;69.30;;;;;;5064272;28;20060;-13
2022/12/27 08:32:39;;;;;;;9.95;3.55;;;16.50;69.40;;;;;;5065969;28;20060;-13
2022/12/27 08:35:04;;;;;;;7.55;3.63;;;16.50;69.50;;;;;;5076398;28;20135;-13
2022/12/27 08:37:30;;;;;;;7.70;3.28;;;16.50;69.40;;;;;;5063158;28;20044;-13
2022/12/27 08:39:56;;;;;;;5.20;3.28;;;16.60;69.40;;;;;;5068666;28;20033;-14
2022/12/27 08:42:21;;;;;;;6.32;2.38;;;16.50;69.50;;;;;;5064894;28;20048;-13
2022/12/27 08:44:47;;;;;;;4.78;2.88;;;16.50;69.50;;;;;;5066085;28;20044;-13
2022/12/27 08:47:13;;;;;;;2.90;2.70;;;16.50;69.40;;;;;;5066428;28;20527;-19
2022/12/27 08:49:38;;;;;;;3.58;2.80;;;16.50;69.40;;;;;;5069336;28;20103;-13
2022/12/27 08:52:04;;;;;;;4.35;2.53;;;16.50;69.30;;;;;;5062218;28;20564;-14
2022/12/27 08:54:30;;;;;;;4.55;3.13;;;16.60;69.50;;;;;;5062856;28;20135;-13
2022/12/27 08:56:55;;;;;;;2.80;2.42;;;16.60;69.50;;;;;;5068900;28;20048;-13
2022/12/27 08:59:21;;;;;;;3.83;2.10;;;16.50;69.30;;;;;;5061925;28;20541;-13
2022/12/27 09:01:46;;;;;;;2.55;2.35;;;16.60;69.30;;;;;;5067918;28;20056;-13
2022/12/27 09:04:12;;;;;;;3.05;2.00;;;16.70;69.80;;;;;;5063518;28;20106;-13
2022/12/27 09:06:38;;;;;;;5.13;2.47;;;16.70;69.00;;;;;;5068273;28;20505;-13
2022/12/27 09:09:04;;;;;;;4.00;2.20;;;16.70;68.70;;;;;;5064841;28;20113;-13
2022/12/27 09:11:31;;;;;;;3.15;2.22;;;16.70;69.10;;;;;;5065027;28;20033;-14
2022/12/27 09:13:58;;;;;;;3.55;2.80;;;16.70;68.90;;;;;;5067221;28;20101;-14
2022/12/27 09:16:26;;;;;;;3.72;1.95;;;16.90;68.80;;;;;;5063490;28;20048;-24
2022/12/27 09:18:52;;;;;;;2.63;2.42;;;16.90;68.60;;;;;;5060546;28;20110;-13
2022/12/27 09:21:19;;;;;;;2.97;2.75;;;17.10;68.00;;;;;;5064727;28;21002;-13
2022/12/27 09:23:45;;;;;;;4.00;2.85;;;17.00;68.20;;;;;;5038636;28;20059;-13
2022/12/27 09:26:18;;;;;;;3.88;3.03;;;17.10;68.10;;;;;;5059417;28;20041;-13
2022/12/27 09:28:44;;;;;;;7.55;4.63;;;17.10;68.20;;;;;;5043230;28;20059;-13
2022/12/27 09:31:10;;;;;;;6.80;6.18;;;17.10;68.30;;;;;;5057299;28;20044;-14
2022/12/27 09:33:35;;;;;;;7.07;5.82;;;17.20;68.20;;;;;;5059609;28;20059;-13
2022/12/27 09:36:05;;;;;;;6.38;5.82;;;17.00;68.60;;;;;;5056382;28;20199;-14
2022/12/27 09:38:31;;;;;;;7.13;5.97;;;17.10;68.50;;;;;;5058942;28;20047;-13
2022/12/27 09:40:58;;;;;;;5.47;5.07;;;17.30;67.90;;;;;;4711836;28;10001286;-14
2022/12/27 09:43:53;;;;;;;5.57;5.07;;;17.30;67.70;;;;;;5062018;28;20496;-14
2022/12/27 09:46:22;;;;;;;5.45;4.95;;;17.20;68.10;;;;;;5020935;28;20070;-15
2022/12/27 09:48:48;;;;;;;5.45;4.95;;;17.30;67.80;;;;;;5029802;28;20512;-13
2022/12/27 09:51:47;;;;;;;6.90;6.18;;;17.40;67.40;;;;;;5043448;28;20075;-13
2022/12/27 09:54:15;;;;;;;5.53;5.07;;;17.40;67.60;;;;;;5037302;28;20061;-13
2022/12/27 09:56:40;;;;;;;6.72;5.07;;;17.30;67.80;;;;;;5059778;28;20925;-13
2022/12/27 09:59:25;;;;;;;8.32;5.15;;;17.30;67.90;;;;;;5041765;28;20044;-13
2022/12/27 10:01:51;;;;;;;5.15;4.40;;;17.40;67.80;;;;;;5042838;28;20057;-13
2022/12/27 10:04:16;;;;;;;4.43;4.13;;;17.40;68.40;;;;;;5042774;28;20047;-12
2022/12/27 10:06:48;;;;;;;4.38;3.65;;;17.50;67.60;;;;;;5041298;28;20047;-13
2022/12/27 10:09:47;;;;;;;4.88;3.78;;;17.50;67.60;;;;;;5063033;28;20047;-13
2022/12/27 10:12:31;;;;;;;3.90;3.60;;;17.60;67.60;;;;;;5059539;28;20041;-12
2022/12/27 10:15:12;;;;;;;3.33;3.13;;;17.60;67.60;;;;;;5064896;28;20253;-13
2022/12/27 10:18:13;;;;;;;3.70;3.38;;;17.60;67.50;;;;;;5065480;28;20032;-12
2022/12/27 10:20:59;;;;;;;4.40;3.40;;;17.50;67.50;;;;;;5042230;28;20051;-13
2022/12/27 10:23:27;;;;;;;3.45;3.25;;;17.60;67.50;;;;;;5027163;28;20052;-13
2022/12/27 10:25:58;;;;;;;3.85;3.55;;;17.50;67.50;;;;;;5043240;28;20083;-18
2022/12/27 10:28:28;;;;;;;2.80;2.60;;;17.60;67.30;;;;;;5060045;28;20033;-19
2022/12/27 10:30:54;;;;;;;3.22;3.03;;;17.60;67.40;;;;;;5066234;28;20413;-16
2022/12/27 10:33:22;;;;;;;3.10;2.90;;;17.60;68.20;;;;;;5060165;28;20754;-14
2022/12/27 10:35:48;;;;;;;3.05;2.85;;;17.60;67.40;;;;;;5058357;28;20048;-13
2022/12/27 10:38:14;;;;;;;3.30;3.00;;;17.60;67.60;;;;;;5043676;28;20025;-13
2022/12/27 10:41:16;;;;;;;3.45;3.10;;;17.50;67.60;;;;;;5070821;28;20505;-14
2022/12/27 10:43:50;;;;;;;3.50;3.20;;;17.60;67.40;;;;;;4983352;28;20068;-13
2022/12/27 10:46:24;;;;;;;4.75;3.92;;;17.70;67.30;;;;;;4975522;28;20039;-14
2022/12/27 10:49:19;;;;;;;4.20;3.90;;;17.60;67.50;;;;;;4978938;28;20181;-13
2022/12/27 10:51:45;;;;;;;3.63;3.33;;;17.60;67.60;;;;;;4957209;28;20050;-13
2022/12/27 10:54:12;;;;;;;3.58;3.28;;;17.40;68.00;;;;;;4974500;28;20538;-13
2022/12/27 10:56:40;;;;;;;4.45;4.07;;;17.40;68.40;;;;;;4987628;28;20045;-13
2022/12/27 10:59:19;;;;;;;3.60;3.40;;;17.30;68.70;;;;;;4985607;28;20042;-13
2022/12/27 11:01:46;;;;;;;4.47;3.63;;;17.40;68.40;;;;;;4989781;28;20137;-13
2022/12/27 11:04:22;;;;;;;3.50;3.25;;;17.30;68.70;;;;;;4971836;28;20913;-13
2022/12/27 11:06:50;;;;;;;4.20;3.53;;;17.30;68.70;;;;;;4984064;28;20077;-13
2022/12/27 11:09:30;;;;;;;4.35;3.28;;;17.30;68.80;;;;;;4991684;28;20046;-13
2022/12/27 11:12:18;;;;;;;4.13;3.72;;;17.40;68.90;;;;;;4990297;28;20125;-13
2022/12/27 11:14:55;;;;;;;3.13;2.92;;;17.40;69.20;;;;;;4301389;28;10001403;-18
2022/12/27 11:17:34;;;;;;;3.38;3.08;;;17.40;68.70;;;;;;4989015;28;20321;-13
2022/12/27 11:20:01;;;;;;;3.47;3.17;;;17.40;68.50;;;;;;5027102;28;20578;-13
2022/12/27 11:22:26;;;;;;;3.15;2.90;;;17.50;68.50;;;;;;5014471;28;20162;-14
2022/12/27 11:24:52;;;;;;;4.05;2.70;;;17.50;68.60;;;;;;5030483;28;20192;-12
2022/12/27 11:27:23;;;;;;;3.95;3.55;;;17.50;68.20;;;;;;5042039;28;20090;-15
2022/12/27 11:29:50;;;;;;;4.45;3.03;;;17.50;68.40;;;;;;5023163;28;20049;-13
2022/12/27 11:32:15;;;;;;;3.00;2.80;;;17.60;68.00;;;;;;5046949;28;20474;-13
2022/12/27 11:34:43;;;;;;;3.08;2.88;;;17.60;68.20;;;;;;5027963;28;20133;-14
2022/12/27 11:37:16;;;;;;;3.00;2.80;;;17.50;68.30;;;;;;5029726;28;20591;-13
2022/12/27 11:39:50;;;;;;;3.37;3.17;;;17.50;68.60;;;;;;5023365;28;20028;-13
2022/12/27 11:42:24;;;;;;;3.33;3.10;;;17.60;68.90;;;;;;5044587;28;20277;-13
2022/12/27 11:45:18;;;;;;;3.50;2.90;;;17.70;68.40;;;;;;5062717;28;20664;-14
2022/12/27 11:47:59;;;;;;;3.60;3.40;;;17.60;68.70;;;;;;5063255;28;20516;-13
2022/12/27 11:50:46;;;;;;;3.63;3.33;;;17.60;68.90;;;;;;5046422;28;20028;-13
2022/12/27 11:53:38;;;;;;;4.15;3.30;;;17.60;69.20;;;;;;5063485;28;20105;-13
2022/12/27 11:56:06;;;;;;;3.42;3.13;;;17.60;69.60;;;;;;5046047;28;20032;-16
2022/12/27 11:58:40;;;;;;;3.53;3.15;;;17.60;69.80;;;;;;5067693;28;20044;-15
2022/12/27 12:01:33;;;;;;;3.30;3.00;;;17.60;70.10;;;;;;5068610;28;20087;-13
2022/12/27 12:03:58;;;;;;;3.15;2.70;;;17.60;70.70;;;;;;5070032;28;20413;-24
2022/12/27 12:06:24;;;;;;;6.38;3.20;;;17.60;70.60;;;;;;5067609;28;20765;-13
2022/12/27 12:09:12;;;;;;;3.22;2.85;;;17.60;70.90;;;;;;5067534;28;20075;-13
2022/12/27 12:11:56;;;;;;;3.10;2.90;;;17.50;71.10;;;;;;5048305;28;20721;-13
2022/12/27 12:14:30;;;;;;;2.77;2.57;;;17.60;71.40;;;;;;5061098;28;20405;-14
2022/12/27 12:17:21;;;;;;;2.92;2.72;;;17.60;71.30;;;;;;5059883;28;20055;-14
2022/12/27 12:20:06;;;;;;;3.20;2.90;;;17.60;71.40;;;;;;5056148;28;20117;-13
2022/12/27 12:22:49;;;;;;;3.00;2.55;;;17.80;71.10;;;;;;5047804;28;20044;-13
2022/12/27 12:25:26;;;;;;;2.80;2.60;;;17.90;70.80;;;;;;5056768;28;20040;-17
2022/12/27 12:28:29;;;;;;;2.90;2.70;;;17.90;70.50;;;;;;5066882;28;20101;-13
2022/12/27 12:31:19;;;;;;;2.40;2.30;;;18.10;70.10;;;;;;5065904;28;20042;-13
2022/12/27 12:33:56;;;;;;;2.45;2.25;;;18.10;70.10;;;;;;5065826;28;20532;-18
2022/12/27 12:36:41;;;;;;;2.50;2.30;;;18.10;69.80;;;;;;5068344;28;20032;-13
2022/12/27 12:39:29;;;;;;;2.75;2.55;;;18.00;69.90;;;;;;5053307;28;20102;-13
2022/12/27 12:42:09;;;;;;;2.55;2.35;;;18.00;70.20;;;;;;4690496;28;10000575;-14
2022/12/27 12:44:53;;;;;;;5.03;2.35;;;18.10;70.50;;;;;;5048700;28;20105;-12
2022/12/27 12:47:57;;;;;;;3.20;2.30;;;17.90;70.70;;;;;;5060204;28;20033;-13
2022/12/27 12:50:41;;;;;;;2.72;2.22;;;18.00;70.60;;;;;;5047024;28;20040;-22
2022/12/27 12:53:19;;;;;;;3.03;2.00;;;18.00;70.80;;;;;;5060977;28;20395;-19
2022/12/27 12:56:00;;;;;;;2.42;2.22;;;18.00;71.10;;;;;;5065237;28;20071;-13
2022/12/27 12:58:47;;;;;;;2.70;2.33;;;17.90;71.30;;;;;;5043239;28;20036;-41
2022/12/27 13:01:24;;;;;;;4.47;2.20;;;17.90;71.40;;;;;;5032464;28;20116;-39
2022/12/27 13:04:18;;;;;;;3.35;2.63;;;17.90;72.10;;;;;;5062617;28;20452;-40
2022/12/27 13:06:57;;;;;;;2.67;2.25;;;17.80;72.20;;;;;;5061457;28;20865;-40
2022/12/27 13:09:32;;;;;;;2.20;2.00;;;17.90;71.70;;;;;;5047873;28;20528;-41
2022/12/27 13:12:07;;;;;;;2.30;1.95;;;17.90;71.90;;;;;;5054053;28;20048;-41
2022/12/27 13:14:36;;;;;;;4.72;2.42;;;17.90;72.00;;;;;;5068917;28;20098;-40
2022/12/27 13:17:07;;;;;;;2.00;1.73;;;17.90;71.70;;;;;;5065943;28;20089;-41
2022/12/27 13:19:51;;;;;;;2.67;2.08;;;17.90;71.80;;;;;;5045669;28;20128;-40
2022/12/27 13:22:54;;;;;;;2.67;2.08;;;17.90;71.30;;;;;;5065687;28;20578;-40
2022/12/27 13:25:23;;;;;;;2.20;2.00;;;17.90;70.90;;;;;;5058971;28;20072;-40
2022/12/27 13:27:55;;;;;;;2.45;1.83;;;18.00;70.90;;;;;;5044786;28;20556;-38
2022/12/27 13:30:21;;;;;;;3.00;1.80;;;17.90;70.80;;;;;;5066639;28;20079;-40
2022/12/27 13:32:59;;;;;;;5.50;2.00;;;18.00;70.90;;;;;;5045905;28;20592;-43
2022/12/27 13:35:36;;;;;;;3.00;2.03;;;18.00;71.10;;;;;;5048956;28;20041;-41
2022/12/27 13:38:06;;;;;;;2.10;1.80;;;18.00;71.70;;;;;;5046935;28;20073;-40
2022/12/27 13:40:56;;;;;;;1.73;1.60;;;18.00;72.10;;;;;;5063454;28;20056;-37
2022/12/27 13:43:42;;;;;;;1.75;1.40;;;18.00;71.20;;;;;;5044513;28;20074;-40
2022/12/27 13:46:42;;;;;;;2.03;1.80;;;18.00;71.00;;;;;;5044151;28;20054;-39
2022/12/27 13:50:01;;;;;;;1.65;1.55;;;18.00;71.00;;;;;;5061396;28;20517;-40
2022/12/27 13:52:45;;;;;;;1.90;1.58;;;18.00;70.90;;;;;;4994152;28;20058;-40
2022/12/27 13:55:48;;;;;;;1.90;1.70;;;18.00;70.90;;;;;;5001908;28;20068;-42
2022/12/27 13:58:35;;;;;;;2.53;2.33;;;18.00;70.90;;;;;;4996745;28;23081;-39
2022/12/27 14:01:26;;;;;;;1.90;1.80;;;18.00;70.90;;;;;;4990226;28;20042;-46
2022/12/27 14:04:04;;;;;;;2.20;2.10;;;18.00;70.90;;;;;;4986099;28;20076;-39
2022/12/27 14:06:52;;;;;;;2.15;1.50;;;18.00;71.00;;;;;;4997685;28;20465;-41
2022/12/27 14:09:38;;;;;;;2.17;1.50;;;18.00;70.90;;;;;;4981628;28;20054;-40
2022/12/27 14:12:36;;;;;;;1.75;1.40;;;18.00;71.00;;;;;;4962177;28;20108;-42
2022/12/27 14:15:04;;;;;;;2.70;1.50;;;18.10;71.10;;;;;;5003525;28;20142;-42
2022/12/27 14:17:41;;;;;;;1.50;1.42;;;18.10;71.10;;;;;;4988068;28;20053;-40
2022/12/27 14:20:35;;;;;;;1.67;1.52;;;18.10;71.10;;;;;;5000008;28;20544;-39
2022/12/27 14:23:15;;;;;;;1.38;1.27;;;18.00;71.00;;;;;;4989144;28;20045;-38
2022/12/27 14:26:22;;;;;;;1.52;1.40;;;18.10;70.90;;;;;;5016637;28;20586;-34
2022/12/27 14:29:23;;;;;;;2.60;1.30;;;18.10;71.00;;;;;;5065885;28;20561;-40
2022/12/27 14:32:19;;;;;;;1.50;1.40;;;18.10;70.80;;;;;;5051013;28;20115;-40
2022/12/27 14:34:57;;;;;;;5.63;2.10;;;18.10;71.10;;;;;;5066021;28;20044;-36
2022/12/27 14:37:50;;;;;;;1.63;1.52;;;18.10;71.00;;;;;;5065786;28;20047;-38
2022/12/27 14:40:49;;;;;;;2.33;1.45;;;18.10;71.00;;;;;;5066679;28;20036;-42
2022/12/27 14:43:32;;;;;;;1.20;1.20;;;18.10;70.60;;;;;;5045560;28;20420;-40
2022/12/27 14:46:28;;;;;;;1.45;1.35;;;18.10;70.70;;;;;;5066573;28;20059;-39
2022/12/27 14:49:05;;;;;;;1.45;1.35;;;18.10;70.70;;;;;;5050923;28;20036;-38
2022/12/27 14:51:46;;;;;;;4.72;1.20;;;18.10;70.80;;;;;;5064383;28;20045;-40
2022/12/27 14:54:26;;;;;;;1.58;1.23;;;18.10;70.70;;;;;;5052597;28;20532;-45
2022/12/27 14:57:17;;;;;;;2.30;1.55;;;18.10;70.90;;;;;;5050347;28;20051;-38
2022/12/27 15:00:04;;;;;;;1.60;1.20;;;18.10;70.80;;;;;;5067597;28;20036;-33
2022/12/27 15:02:35;;;;;;;1.20;1.10;;;18.20;70.70;;;;;;5039578;28;20087;-40